Time;durP1;ratioP1;P1;durP2;ratioP2;P2;SDS_P1;SDS_P2;PMS_P1;PMS_P2;Temp;Humidity;BMP_temperature;BMP_pressure;BME280_temperature;BME280_humidity;BME280_pressure;Samples;Min_cycle;Max_cycle;Signal;HPM_P1;HPM_P2
2021/06/20 00:01:34;;;;;;;8.40;5.60;;;;;;;;;;5090161;28;20047;-80
2021/06/20 00:04:01;;;;;;;12.18;5.72;;;;;;;;;;5093375;28;20044;-80
2021/06/20 00:06:33;;;;;;;12.15;5.40;;;26.00;99.90;;;;;;5093764;28;20134;-78
2021/06/20 00:09:06;;;;;;;7.07;4.82;;;26.00;99.90;;;;;;5094005;28;20116;-78
2021/06/20 00:11:36;;;;;;;6.90;4.28;;;26.00;99.90;;;;;;5086528;28;20181;-79
2021/06/20 00:14:03;;;;;;;9.05;5.60;;;;;;;;;;5093818;28;20131;-79
2021/06/20 00:16:31;;;;;;;9.10;5.70;;;25.90;92.90;;;;;;5093776;28;20134;-78
2021/06/20 00:18:59;;;;;;;9.75;5.22;;;26.00;99.90;;;;;;5093613;28;20131;-78
2021/06/20 00:21:27;;;;;;;8.90;4.40;;;26.00;92.70;;;;;;5093135;28;20090;-79
2021/06/20 00:23:55;;;;;;;8.25;5.80;;;;;;;;;;5093708;28;20441;-79
2021/06/20 00:26:24;;;;;;;8.65;5.25;;;25.90;93.20;;;;;;5093447;28;20139;-80
2021/06/20 00:28:51;;;;;;;7.50;5.45;;;25.90;99.90;;;;;;5094195;28;20048;-79
2021/06/20 00:31:19;;;;;;;7.78;5.25;;;25.80;93.00;;;;;;5093429;28;20519;-79
2021/06/20 00:33:46;;;;;;;11.55;6.15;;;;;;;;;;5093530;28;20493;-79
2021/06/20 00:36:13;;;;;;;8.50;6.00;;;25.70;99.90;;;;;;5092899;28;20131;-79
2021/06/20 00:38:41;;;;;;;11.90;6.22;;;25.70;97.80;;;;;;5093398;28;20127;-79
2021/06/20 00:41:08;;;;;;;12.93;6.13;;;;;;;;;;5093240;28;20131;-79
2021/06/20 00:43:37;;;;;;;8.90;5.07;;;25.60;92.50;;;;;;5093643;28;20450;-81
2021/06/20 00:46:05;;;;;;;7.78;5.15;;;;;;;;;;5093320;28;20142;-79
2021/06/20 00:48:32;;;;;;;8.75;5.50;;;25.60;99.90;;;;;;5085938;28;20093;-79
2021/06/20 00:51:00;;;;;;;7.50;5.40;;;;;;;;;;5091633;28;20052;-78
2021/06/20 00:53:27;;;;;;;11.93;5.78;;;;;;;;;;5093068;28;20078;-79
2021/06/20 00:55:56;;;;;;;10.25;5.30;;;;;;;;;;5093420;28;20131;-79
2021/06/20 00:58:23;;;;;;;8.10;5.97;;;25.30;99.90;;;;;;5093385;28;20127;-79
2021/06/20 01:00:51;;;;;;;9.68;5.97;;;25.30;94.90;;;;;;5092803;28;20160;-79
2021/06/20 01:03:19;;;;;;;9.27;5.93;;;;;;;;;;5091683;28;20489;-82
2021/06/20 01:05:46;;;;;;;10.07;5.13;;;;;;;;;;5092977;28;20126;-79
2021/06/20 01:08:14;;;;;;;7.70;4.70;;;;;;;;;;5092925;28;20451;-79
2021/06/20 01:10:42;;;;;;;7.57;5.10;;;;;;;;;;5093250;28;20113;-81
2021/06/20 01:13:12;;;;;;;8.85;5.32;;;25.40;96.00;;;;;;5092580;28;20480;-80
2021/06/20 01:15:40;;;;;;;8.07;5.43;;;25.40;95.80;;;;;;5092715;28;20556;-80
2021/06/20 01:18:10;;;;;;;10.38;5.90;;;25.40;96.60;;;;;;5092080;28;20124;-82
2021/06/20 01:20:37;;;;;;;11.25;5.70;;;;;;;;;;5092072;28;20139;-79
2021/06/20 01:23:06;;;;;;;9.95;5.32;;;25.50;97.00;;;;;;5092598;28;20587;-80
2021/06/20 01:25:37;;;;;;;12.73;5.53;;;25.50;97.00;;;;;;5092974;28;20150;-80
2021/06/20 01:28:07;;;;;;;9.35;5.53;;;;;;;;;;5092359;28;20130;-80
2021/06/20 01:30:36;;;;;;;13.00;6.00;;;25.50;97.10;;;;;;5092828;28;20036;-80
2021/06/20 01:33:07;;;;;;;11.75;6.18;;;25.50;97.20;;;;;;5092556;28;20127;-79
2021/06/20 01:35:35;;;;;;;11.30;5.47;;;;;;;;;;5085206;28;20068;-81
2021/06/20 01:38:04;;;;;;;14.85;6.43;;;25.50;97.20;;;;;;5092935;28;20396;-80
2021/06/20 01:40:32;;;;;;;18.23;7.07;;;25.50;97.50;;;;;;5084946;28;20122;-79
2021/06/20 01:43:00;;;;;;;18.67;6.25;;;;;;;;;;5092566;28;20074;-79
2021/06/20 01:45:28;;;;;;;15.15;5.70;;;25.50;97.00;;;;;;5092539;28;20075;-81
2021/06/20 01:47:59;;;;;;;13.93;6.22;;;25.50;97.90;;;;;;5092766;28;20075;-80
2021/06/20 01:50:27;;;;;;;11.52;6.10;;;25.50;97.90;;;;;;5105754;28;20079;-80
2021/06/20 01:53:03;;;;;;;14.60;6.03;;;25.50;96.70;;;;;;5092667;28;20139;-82
2021/06/20 01:55:32;;;;;;;14.88;5.93;;;25.50;98.20;;;;;;5084801;28;20075;-80
2021/06/20 01:58:00;;;;;;;19.98;6.43;;;;;;;;;;5092601;28;20127;-78
2021/06/20 02:00:27;;;;;;;16.45;5.78;;;;;;;;;;5092273;28;20101;-80
2021/06/20 02:02:55;;;;;;;15.73;5.72;;;;;;;;;;5090800;28;20088;-79
2021/06/20 02:05:26;;;;;;;17.20;6.22;;;25.40;98.50;;;;;;5096149;28;20135;-78
2021/06/20 02:07:53;;;;;;;15.70;6.13;;;;;;;;;;5096295;28;20127;-80
2021/06/20 02:10:21;;;;;;;17.20;6.28;;;;;;;;;;5096290;28;20063;-79
2021/06/20 02:12:51;;;;;;;20.42;6.05;;;25.30;98.80;;;;;;5097094;28;20119;-80
2021/06/20 02:15:19;;;;;;;16.90;6.03;;;;;;;;;;5096156;28;20055;-81
2021/06/20 02:17:47;;;;;;;15.20;5.95;;;;;;;;;;5095944;28;20068;-80
2021/06/20 02:20:18;;;;;;;22.45;6.45;;;25.30;98.90;;;;;;5095943;28;20139;-78
2021/06/20 02:22:47;;;;;;;16.17;5.57;;;25.30;99.30;;;;;;5096001;28;20496;-79
2021/06/20 02:25:16;;;;;;;16.38;6.60;;;25.20;99.30;;;;;;5095715;28;20134;-80
2021/06/20 02:27:45;;;;;;;22.45;7.38;;;25.20;99.40;;;;;;5090165;28;20122;-82
2021/06/20 02:30:16;;;;;;;17.58;6.25;;;25.20;99.60;;;;;;5095953;28;20130;-81
2021/06/20 02:32:44;;;;;;;18.35;6.05;;;;;;;;;;5096232;28;20096;-81
2021/06/20 02:35:14;;;;;;;15.63;5.72;;;25.10;99.20;;;;;;5095654;28;20434;-80
2021/06/20 02:37:43;;;;;;;15.30;5.82;;;25.00;99.60;;;;;;5096104;28;20119;-79
2021/06/20 02:40:12;;;;;;;18.08;6.45;;;25.10;99.90;;;;;;5095111;28;20080;-80
2021/06/20 02:42:40;;;;;;;21.85;6.30;;;;;;;;;;5095820;28;20516;-80
2021/06/20 02:45:11;;;;;;;17.27;6.05;;;25.10;99.90;;;;;;5095591;28;20119;-82
2021/06/20 02:47:39;;;;;;;20.77;5.72;;;25.00;99.90;;;;;;5095662;28;20552;-80
2021/06/20 02:50:09;;;;;;;17.38;5.93;;;25.00;99.90;;;;;;5095218;28;20484;-77
2021/06/20 02:52:37;;;;;;;17.02;5.80;;;;;;;;;;5095603;28;20123;-81
2021/06/20 02:55:05;;;;;;;18.70;5.40;;;;;;;;;;5095197;28;20135;-81
2021/06/20 02:57:33;;;;;;;15.40;5.32;;;25.00;99.70;;;;;;5095264;28;20048;-81
2021/06/20 03:00:02;;;;;;;17.20;5.07;;;;;;;;;;5095816;28;20076;-80
2021/06/20 03:02:30;;;;;;;16.23;5.72;;;;;;;;;;5094249;28;20513;-81
2021/06/20 03:04:58;;;;;;;16.80;5.75;;;25.00;99.90;;;;;;5089897;28;20386;-81
2021/06/20 03:07:26;;;;;;;15.70;5.47;;;;;;;;;;5093374;28;20139;-81
2021/06/20 03:09:54;;;;;;;17.63;5.60;;;;;;;;;;5092365;28;20044;-80
2021/06/20 03:12:22;;;;;;;15.05;5.00;;;;;;;;;;5093415;28;20047;-80
2021/06/20 03:14:49;;;;;;;16.30;5.28;;;24.90;99.90;;;;;;5092583;28;20460;-80
2021/06/20 03:17:18;;;;;;;15.93;5.40;;;25.00;99.90;;;;;;5092647;28;20060;-82
2021/06/20 03:19:47;;;;;;;11.70;4.40;;;;;;;;;;5092476;28;20139;-79
2021/06/20 03:22:15;;;;;;;15.93;5.15;;;24.90;99.90;;;;;;5092695;28;20044;-80
2021/06/20 03:24:51;;;;;;;13.82;4.70;;;24.90;99.90;;;;;;5092580;28;20132;-80
2021/06/20 03:27:20;;;;;;;13.77;4.75;;;;;;;;;;5092224;28;20560;-79
2021/06/20 03:29:47;;;;;;;14.13;4.95;;;;;;;;;;5093054;28;20044;-79
2021/06/20 03:32:16;;;;;;;15.93;4.80;;;24.90;99.90;;;;;;5092738;28;20075;-80
2021/06/20 03:34:44;;;;;;;12.75;5.13;;;;;;;;;;5092723;28;20046;-80
2021/06/20 03:37:11;;;;;;;15.20;5.05;;;;;;;;;;5092150;28;20083;-81
2021/06/20 03:39:40;;;;;;;13.52;5.00;;;;;;;;;;5092571;28;20123;-82
2021/06/20 03:42:08;;;;;;;13.95;4.85;;;;;;;;;;5092279;28;20131;-81
2021/06/20 03:44:36;;;;;;;14.23;4.50;;;;;;;;;;5092168;28;20461;-82
2021/06/20 03:47:03;;;;;;;15.75;4.68;;;;;;;;;;5091479;28;20148;-82
2021/06/20 03:49:31;;;;;;;15.77;5.15;;;;;;;;;;5092180;28;20126;-80
2021/06/20 03:51:58;;;;;;;16.77;5.07;;;;;;;;;;5092111;28;20412;-82
2021/06/20 03:54:25;;;;;;;14.05;4.30;;;;;;;;;;5091385;28;20075;-81
2021/06/20 03:56:55;;;;;;;11.23;3.72;;;;;;;;;;5092509;28;20127;-81
2021/06/20 03:59:23;;;;;;;16.55;4.03;;;;;;;;;;5091701;28;20126;-81
2021/06/20 04:01:51;;;;;;;18.40;5.32;;;;;;;;;;5093149;28;20070;-81
2021/06/20 04:04:19;;;;;;;18.33;4.35;;;;;;;;;;5094551;28;20503;-81
2021/06/20 04:06:46;;;;;;;14.30;3.95;;;;;;;;;;5094106;28;20048;-80
2021/06/20 04:09:14;;;;;;;16.50;4.10;;;;;;;;;;5094131;28;20485;-80
2021/06/20 04:11:41;;;;;;;10.23;3.90;;;;;;;;;;5094192;28;20071;-81
2021/06/20 04:14:10;;;;;;;12.32;3.70;;;;;;;;;;5093334;28;20552;-80
2021/06/20 04:16:37;;;;;;;14.90;4.45;;;;;;;;;;5094378;28;20131;-79
2021/06/20 04:19:04;;;;;;;14.32;4.10;;;;;;;;;;5093898;28;20040;-78
2021/06/20 04:21:32;;;;;;;18.70;4.57;;;;;;;;;;5093809;28;20078;-82
2021/06/20 04:23:59;;;;;;;15.40;3.80;;;;;;;;;;5094322;28;20507;-81
2021/06/20 04:26:26;;;;;;;15.73;4.15;;;;;;;;;;5093081;28;20050;-82
2021/06/20 04:28:54;;;;;;;15.98;3.38;;;;;;;;;;5096378;28;20044;-81
2021/06/20 04:31:23;;;;;;;14.40;3.75;;;;;;;;;;5102863;28;20454;-80
2021/06/20 04:33:50;;;;;;;11.05;3.33;;;;;;;;;;5103336;28;20048;-82
2021/06/20 04:36:18;;;;;;;14.88;3.47;;;;;;;;;;5104774;28;20048;-81
2021/06/20 04:38:46;;;;;;;15.05;3.58;;;;;;;;;;5103474;28;20086;-81
2021/06/20 04:41:15;;;;;;;14.52;3.65;;;;;;;;;;5093508;28;20130;-82
2021/06/20 04:43:58;;;;;;;10.90;3.00;;;;;;;;;;5093583;28;20454;-83
2021/06/20 04:46:29;;;;;;;10.85;2.95;;;;;;;;;;5092755;28;20048;-82
2021/06/20 04:48:57;;;;;;;10.68;3.25;;;;;;;;;;5093884;28;20044;-80
2021/06/20 04:51:25;;;;;;;9.48;2.90;;;;;;;;;;5093471;28;20142;-78
2021/06/20 04:53:52;;;;;;;9.82;2.85;;;;;;;;;;5093122;28;20139;-78
2021/06/20 04:56:20;;;;;;;10.57;3.08;;;;;;;;;;5099706;28;20106;-79
2021/06/20 04:58:47;;;;;;;13.95;3.53;;;;;;;;;;5103246;28;20076;-79
2021/06/20 05:01:14;;;;;;;11.48;3.30;;;;;;;;;;5093903;28;20127;-79
2021/06/20 05:03:43;;;;;;;13.95;3.50;;;24.70;99.90;;;;;;5093651;28;20119;-77
2021/06/20 05:06:11;;;;;;;13.85;3.38;;;;;;;;;;5097243;28;20089;-78
2021/06/20 05:08:38;;;;;;;12.60;3.28;;;;;;;;;;5103178;28;20094;-87
2021/06/20 05:11:05;;;;;;;11.38;3.10;;;;;;;;;;5104945;28;20062;-85
2021/06/20 05:13:33;;;;;;;13.20;2.95;;;;;;;;;;5093980;28;20086;-86
2021/06/20 05:16:00;;;;;;;12.40;2.85;;;;;;;;;;5097656;28;20105;-83
2021/06/20 05:18:27;;;;;;;10.10;2.67;;;;;;;;;;5095133;28;20071;-81
2021/06/20 05:20:56;;;;;;;11.30;2.53;;;;;;;;;;5093928;28;20110;-79
2021/06/20 05:23:23;;;;;;;10.90;2.80;;;;;;;;;;5093546;28;20036;-79
2021/06/20 05:25:52;;;;;;;8.40;2.65;;;;;;;;;;5093793;28;20127;-79
2021/06/20 05:28:19;;;;;;;14.05;2.97;;;;;;;;;;5092744;28;20135;-78
2021/06/20 05:30:47;;;;;;;12.93;2.92;;;;;;;;;;5093228;28;20055;-75
2021/06/20 05:33:15;;;;;;;13.23;3.38;;;;;;;;;;5086381;28;20089;-77
2021/06/20 05:35:43;;;;;;;9.05;2.75;;;;;;;;;;5092085;28;20127;-76
2021/06/20 05:38:13;;;;;;;8.00;2.80;;;;;;;;;;5094214;28;20501;-76
2021/06/20 05:40:41;;;;;;;12.10;2.90;;;;;;;;;;5091514;28;20044;-78
2021/06/20 05:43:09;;;;;;;14.70;2.80;;;;;;;;;;5096515;28;20090;-77
2021/06/20 05:45:37;;;;;;;9.70;2.88;;;;;;;;;;5096531;28;20138;-78
2021/06/20 05:48:05;;;;;;;11.13;2.97;;;;;;;;;;5096349;28;20043;-78
2021/06/20 05:50:32;;;;;;;12.43;3.63;;;;;;;;;;5096619;28;20127;-78
2021/06/20 05:52:59;;;;;;;10.57;2.63;;;;;;;;;;5096182;28;20127;-78
2021/06/20 05:55:28;;;;;;;9.25;2.63;;;;;;;;;;5095562;28;20127;-77
2021/06/20 05:57:56;;;;;;;17.33;3.08;;;;;;;;;;5090414;28;20561;-76
2021/06/20 06:00:23;;;;;;;9.02;3.15;;;;;;;;;;5087802;28;20441;-77
2021/06/20 06:02:50;;;;;;;12.95;2.70;;;;;;;;;;5096758;28;20139;-79
2021/06/20 06:05:18;;;;;;;8.63;2.80;;;;;;;;;;5096017;28;20067;-77
2021/06/20 06:07:45;;;;;;;12.65;3.15;;;;;;;;;;5095638;28;20585;-77
2021/06/20 06:10:14;;;;;;;12.32;2.60;;;;;;;;;;5094674;28;20413;-75
2021/06/20 06:12:42;;;;;;;14.95;2.75;;;;;;;;;;5089698;28;20386;-76
2021/06/20 06:15:11;;;;;;;11.30;2.75;;;;;;;;;;5096044;28;20184;-79
2021/06/20 06:17:38;;;;;;;8.90;2.88;;;;;;;;;;5096067;28;20048;-76
2021/06/20 06:20:07;;;;;;;9.90;2.67;;;;;;;;;;5095494;28;20135;-79
2021/06/20 06:22:34;;;;;;;12.82;2.78;;;;;;;;;;5096237;28;20509;-77
2021/06/20 06:25:01;;;;;;;10.02;2.70;;;;;;;;;;5096216;28;20134;-76
2021/06/20 06:27:29;;;;;;;11.00;3.00;;;;;;;;;;5095074;28;20040;-75
2021/06/20 06:29:58;;;;;;;10.65;2.70;;;;;;;;;;5095587;28;20075;-77
2021/06/20 06:32:25;;;;;;;11.48;2.90;;;;;;;;;;5095384;28;20123;-77
2021/06/20 06:34:52;;;;;;;9.13;2.58;;;;;;;;;;5095634;28;20044;-75
2021/06/20 06:37:20;;;;;;;11.70;2.90;;;;;;;;;;5096191;28;20075;-78
2021/06/20 06:39:47;;;;;;;7.90;2.30;;;;;;;;;;5096462;28;20040;-79
2021/06/20 06:42:14;;;;;;;6.00;2.55;;;;;;;;;;5092041;28;20561;-78
2021/06/20 06:44:41;;;;;;;10.88;2.78;;;;;;;;;;5091775;28;20128;-76
2021/06/20 06:47:10;;;;;;;10.30;2.28;;;;;;;;;;5095063;28;20136;-76
2021/06/20 06:49:38;;;;;;;10.27;2.33;;;;;;;;;;5094612;28;20036;-76
2021/06/20 06:52:05;;;;;;;8.25;2.20;;;;;;;;;;5093113;28;20067;-77
2021/06/20 06:54:33;;;;;;;10.52;2.20;;;;;;;;;;5093256;28;20080;-75
2021/06/20 06:57:00;;;;;;;7.50;2.50;;;;;;;;;;5094384;28;20072;-76
2021/06/20 06:59:28;;;;;;;10.90;2.55;;;;;;;;;;5092110;28;20128;-78
2021/06/20 07:01:55;;;;;;;7.50;1.92;;;;;;;;;;5091538;28;20462;-77
2021/06/20 07:04:24;;;;;;;8.50;2.38;;;;;;;;;;5087897;28;20188;-76
2021/06/20 07:06:51;;;;;;;6.60;1.80;;;;;;;;;;5095198;28;20141;-76
2021/06/20 07:09:19;;;;;;;5.07;1.42;;;;;;;;;;5094661;28;20086;-76
2021/06/20 07:11:47;;;;;;;8.55;1.80;;;;;;;;;;5093882;28;20047;-75
2021/06/20 07:14:15;;;;;;;7.78;1.75;;;;;;;;;;5090177;28;20048;-76
2021/06/20 07:16:42;;;;;;;7.90;1.90;;;;;;;;;;5104209;28;20377;-74
2021/06/20 07:19:09;;;;;;;8.18;2.05;;;;;;;;;;5106974;28;20071;-74
2021/06/20 07:21:38;;;;;;;7.00;1.77;;;;;;;;;;5108326;28;20051;-75
2021/06/20 07:24:06;;;;;;;7.88;1.92;;;;;;;;;;5105755;28;20477;-74
2021/06/20 07:26:33;;;;;;;5.25;1.60;;;;;;;;;;5101539;28;20043;-74
2021/06/20 07:29:02;;;;;;;4.88;1.50;;;;;;;;;;5105979;28;20074;-76
2021/06/20 07:31:30;;;;;;;7.03;1.70;;;;;;;;;;5099554;28;20036;-76
2021/06/20 07:33:57;;;;;;;5.50;1.50;;;;;;;;;;5086833;28;20044;-77
2021/06/20 07:36:24;;;;;;;7.75;1.75;;;;;;;;;;5089017;28;20063;-78
2021/06/20 07:38:53;;;;;;;5.07;2.00;;;;;;;;;;5099347;28;20143;-78
2021/06/20 07:41:20;;;;;;;7.63;1.85;;;;;;;;;;5093134;28;20040;-76
2021/06/20 07:43:48;;;;;;;5.95;1.40;;;;;;;;;;5092632;28;20140;-77
2021/06/20 07:46:15;;;;;;;7.60;1.80;;;;;;;;;;5094644;28;20076;-78
2021/06/20 07:48:42;;;;;;;4.45;1.50;;;;;;;;;;5095955;28;20118;-78
2021/06/20 07:51:10;;;;;;;5.43;1.50;;;;;;;;;;5084155;28;20135;-76
2021/06/20 07:53:37;;;;;;;6.07;1.58;;;;;;;;;;5092175;28;20118;-78
2021/06/20 07:56:07;;;;;;;4.95;1.55;;;;;;;;;;5090675;28;20182;-76
2021/06/20 07:58:34;;;;;;;7.32;1.98;;;;;;;;;;5090366;28;20044;-79
2021/06/20 08:01:02;;;;;;;7.40;1.52;;;;;;;;;;5084165;28;20500;-78
2021/06/20 08:03:31;;;;;;;4.75;1.55;;;;;;;;;;5091754;28;20131;-76
2021/06/20 08:05:59;;;;;;;8.93;2.00;;;;;;;;;;5091581;28;20055;-76
2021/06/20 08:08:26;;;;;;;5.53;1.60;;;;;;;;;;5091095;28;20135;-79
2021/06/20 08:10:54;;;;;;;6.55;1.90;;;;;;;;;;5091754;28;20048;-76
2021/06/20 08:13:22;;;;;;;8.20;2.10;;;25.60;99.90;;;;;;5091627;28;20134;-77
2021/06/20 08:15:50;;;;;;;7.60;1.65;;;;;;;;;;5095025;28;20159;-76
2021/06/20 08:18:17;;;;;;;4.72;1.58;;;;;;;;;;5074238;28;20048;-76
2021/06/20 08:20:44;;;;;;;6.78;1.70;;;;;;;;;;5073390;28;20442;-77
2021/06/20 08:23:12;;;;;;;5.72;1.50;;;;;;;;;;5071606;28;20076;-77
2021/06/20 08:25:39;;;;;;;8.45;1.70;;;;;;;;;;5071551;28;20508;-75
2021/06/20 08:28:07;;;;;;;4.72;1.60;;;;;;;;;;5072744;28;20054;-77
2021/06/20 08:30:36;;;;;;;7.35;1.73;;;25.40;99.90;;;;;;5084272;28;20037;-77
2021/06/20 08:33:04;;;;;;;6.28;1.60;;;;;;;;;;5091859;28;20424;-75
2021/06/20 08:35:31;;;;;;;5.80;1.80;;;;;;;;;;5091151;28;20044;-77
2021/06/20 08:37:58;;;;;;;5.03;1.50;;;;;;;;;;5090373;28;20087;-75
2021/06/20 08:40:26;;;;;;;6.32;1.70;;;;;;;;;;5091564;28;20093;-79
2021/06/20 08:42:53;;;;;;;6.53;1.58;;;;;;;;;;5091435;28;20076;-79
2021/06/20 08:45:21;;;;;;;5.55;1.50;;;;;;;;;;5091721;28;20075;-78
2021/06/20 08:47:50;;;;;;;6.32;1.40;;;;;;;;;;5090877;28;20044;-80
2021/06/20 08:50:18;;;;;;;7.75;1.80;;;;;;;;;;5091282;28;20074;-78
2021/06/20 08:52:46;;;;;;;6.07;1.83;;;;;;;;;;5099745;28;20090;-75
2021/06/20 08:55:15;;;;;;;7.18;1.67;;;;;;;;;;5092446;28;20610;-77
2021/06/20 08:57:44;;;;;;;5.43;1.60;;;;;;;;;;5090996;28;20048;-77
2021/06/20 09:00:16;;;;;;;7.07;1.50;;;25.70;99.50;;;;;;5090657;28;20093;-79
2021/06/20 09:02:43;;;;;;;5.38;1.70;;;;;;;;;;5090533;28;20068;-80
2021/06/20 09:05:16;;;;;;;5.45;1.30;;;25.90;98.80;;;;;;5090233;28;20509;-80
2021/06/20 09:07:44;;;;;;;3.95;1.33;;;26.00;98.40;;;;;;5089939;28;20044;-78
2021/06/20 09:10:16;;;;;;;5.93;2.05;;;26.00;98.40;;;;;;5089646;28;20086;-77
2021/06/20 09:12:46;;;;;;;5.90;1.60;;;26.10;98.70;;;;;;5090199;28;20345;-77
2021/06/20 09:15:15;;;;;;;7.05;1.58;;;;;;;;;;5090341;28;20528;-76
2021/06/20 09:17:49;;;;;;;5.93;1.58;;;26.20;98.30;;;;;;5090472;28;20040;-77
2021/06/20 09:20:18;;;;;;;6.80;1.63;;;26.20;97.90;;;;;;5088454;28;20493;-78
2021/06/20 09:22:57;;;;;;;5.05;1.42;;;26.20;97.70;;;;;;5097911;28;20055;-75
2021/06/20 09:25:30;;;;;;;5.97;1.40;;;26.20;96.50;;;;;;5088990;28;20123;-77
2021/06/20 09:27:59;;;;;;;5.18;1.35;;;26.40;98.10;;;;;;5089761;28;20052;-78
2021/06/20 09:30:29;;;;;;;4.10;1.38;;;;;;;;;;5090258;28;20093;-74
2021/06/20 09:32:58;;;;;;;6.38;1.48;;;26.40;98.00;;;;;;5090300;28;20059;-78
2021/06/20 09:35:32;;;;;;;8.27;1.73;;;26.50;97.70;;;;;;5090186;28;20721;-80
2021/06/20 09:38:00;;;;;;;5.05;1.60;;;;;;;;;;5090766;28;20075;-83
2021/06/20 09:40:28;;;;;;;8.00;1.52;;;;;;;;;;5089894;28;20048;-79
2021/06/20 09:42:56;;;;;;;5.70;1.70;;;;;;;;;;5089794;28;20048;-77
2021/06/20 09:45:28;;;;;;;5.25;1.40;;;26.80;95.70;;;;;;5087710;28;20203;-78
2021/06/20 09:47:56;;;;;;;4.63;1.13;;;;;;;;;;5086186;28;20052;-77
2021/06/20 09:50:39;;;;;;;5.65;1.88;;;27.00;95.80;;;;;;5086314;28;20047;-78
2021/06/20 09:53:07;;;;;;;5.22;1.42;;;;;;;;;;5089461;28;20048;-78
2021/06/20 09:55:35;;;;;;;4.95;1.40;;;;;;;;;;5084686;28;20044;-76
2021/06/20 09:58:03;;;;;;;6.22;1.60;;;;;;;;;;5093782;28;20084;-74
2021/06/20 10:00:39;;;;;;;5.45;1.50;;;27.30;94.40;;;;;;5096359;28;20045;-77
2021/06/20 10:03:07;;;;;;;5.63;1.67;;;;;;;;;;5091057;28;20071;-77
2021/06/20 10:05:35;;;;;;;4.35;1.50;;;;;;;;;;5099394;28;20076;-76
2021/06/20 10:08:05;;;;;;;5.90;1.67;;;;;;;;;;5098324;28;20040;-75
2021/06/20 10:10:32;;;;;;;4.65;1.50;;;;;;;;;;5081913;28;20043;-77
2021/06/20 10:13:00;;;;;;;4.93;1.52;;;;;;;;;;5082257;28;20083;-75
2021/06/20 10:15:30;;;;;;;7.07;1.67;;;27.60;95.40;;;;;;5089616;28;20055;-76
2021/06/20 10:18:00;;;;;;;6.55;1.60;;;;;;;;;;5080646;28;20048;-79
2021/06/20 10:20:34;;;;;;;5.30;1.58;;;27.70;95.30;;;;;;5088825;28;20052;-79
2021/06/20 10:23:04;;;;;;;5.45;1.55;;;;;;;;;;5089600;28;20048;-77
2021/06/20 10:25:34;;;;;;;7.78;1.73;;;;;;;;;;5085235;28;20048;-77
2021/06/20 10:28:06;;;;;;;7.15;1.85;;;27.90;95.70;;;;;;5093256;28;20134;-78
2021/06/20 10:30:35;;;;;;;5.20;2.22;;;27.90;95.30;;;;;;5089802;28;20044;-75
2021/06/20 10:33:11;;;;;;;7.32;1.90;;;28.00;94.20;;;;;;5089256;28;20051;-75
2021/06/20 10:35:39;;;;;;;5.82;1.88;;;;;;;;;;5086445;28;20123;-77
2021/06/20 10:38:08;;;;;;;6.32;1.98;;;28.10;95.80;;;;;;5093155;28;20048;-78
2021/06/20 10:40:42;;;;;;;5.75;1.52;;;28.20;95.60;;;;;;5081177;28;20049;-77
2021/06/20 10:43:18;;;;;;;5.53;1.70;;;28.30;94.20;;;;;;5090734;28;20048;-79
2021/06/20 10:45:46;;;;;;;6.75;1.73;;;;;;;;;;5092749;28;20043;-76
2021/06/20 10:48:17;;;;;;;7.72;1.92;;;28.40;95.70;;;;;;5093112;28;20048;-79
2021/06/20 10:50:49;;;;;;;4.63;1.80;;;28.40;95.80;;;;;;5093258;28;20040;-78
2021/06/20 10:53:18;;;;;;;9.32;2.90;;;28.40;96.20;;;;;;5092622;28;20145;-78
2021/06/20 10:55:50;;;;;;;7.72;2.53;;;28.40;95.70;;;;;;5092797;28;20127;-75
2021/06/20 10:58:21;;;;;;;6.47;2.00;;;28.40;95.10;;;;;;5093188;28;20390;-75
2021/06/20 11:00:50;;;;;;;7.25;1.70;;;28.50;95.00;;;;;;5092984;28;20115;-77
2021/06/20 11:03:26;;;;;;;5.70;2.17;;;28.60;96.20;;;;;;5093523;28;20068;-78
2021/06/20 11:05:56;;;;;;;6.15;2.03;;;28.70;96.90;;;;;;5095250;28;20079;-78
2021/06/20 11:08:32;;;;;;;8.52;1.90;;;28.70;95.30;;;;;;5095109;28;20052;-77
2021/06/20 11:11:24;;;;;;;8.00;2.10;;;28.80;95.30;;;;;;5095946;28;20040;-78
2021/06/20 11:14:05;;;;;;;8.48;1.95;;;28.90;96.60;;;;;;5083749;28;20524;-77
2021/06/20 11:16:34;;;;;;;4.47;1.75;;;;;;;;;;5093570;28;20082;-78
2021/06/20 11:19:10;;;;;;;7.63;2.00;;;;;;;;;;5093397;28;20047;-77
2021/06/20 11:21:39;;;;;;;10.35;2.40;;;;;;;;;;5085972;28;20055;-77
2021/06/20 11:24:10;;;;;;;9.05;2.22;;;;;;;;;;5092991;28;20480;-76
2021/06/20 11:26:38;;;;;;;8.70;2.20;;;;;;;;;;5098723;28;20438;-80
2021/06/20 11:29:07;;;;;;;10.77;2.38;;;;;;;;;;5100519;28;20561;-78
2021/06/20 11:31:45;;;;;;;8.23;2.08;;;;;;;;;;5085137;28;20047;-77
2021/06/20 11:34:13;;;;;;;8.55;2.70;;;;;;;;;;5091755;28;20101;-78
2021/06/20 11:36:40;;;;;;;9.75;2.60;;;;;;;;;;5092101;28;20071;-75
2021/06/20 11:39:11;;;;;;;10.38;2.45;;;29.20;72.90;;;;;;5092278;28;20048;-84
2021/06/20 11:41:44;;;;;;;9.10;2.15;;;29.30;70.00;;;;;;5091004;28;20040;-81
2021/06/20 11:44:12;;;;;;;9.23;2.10;;;;;;;;;;5100167;28;20052;-81
2021/06/20 11:46:42;;;;;;;11.15;2.50;;;29.50;90.60;;;;;;5105093;28;20047;-80
2021/06/20 11:49:12;;;;;;;8.00;2.05;;;29.70;90.90;;;;;;5101577;28;20052;-80
2021/06/20 11:51:43;;;;;;;7.47;2.05;;;29.70;69.90;;;;;;5102873;28;20514;-77
2021/06/20 11:54:27;;;;;;;12.52;2.67;;;29.80;66.50;;;;;;5103444;28;20069;-78
2021/06/20 11:56:57;;;;;;;9.98;2.38;;;29.70;70.80;;;;;;5098246;28;20036;-78
2021/06/20 11:59:32;;;;;;;13.43;2.25;;;;;;;;;;5102960;28;20075;-80
2021/06/20 12:02:00;;;;;;;13.05;2.40;;;;;;;;;;5093505;28;20044;-81
2021/06/20 12:04:30;;;;;;;10.68;2.25;;;;;;;;;;5091260;28;20067;-77
2021/06/20 12:07:02;;;;;;;10.60;2.72;;;;;;;;;;5089519;28;20047;-79
2021/06/20 12:09:31;;;;;;;12.57;2.70;;;;;;;;;;5092248;28;20135;-79
2021/06/20 12:12:01;;;;;;;8.27;2.40;;;;;;;;;;5092822;28;20048;-80
2021/06/20 12:14:30;;;;;;;15.30;2.60;;;;;;;;;;5093518;28;20127;-79
2021/06/20 12:16:58;;;;;;;10.30;2.60;;;30.40;74.60;;;;;;5092494;28;20105;-81
2021/06/20 12:19:27;;;;;;;10.02;2.47;;;;;;;;;;5093035;28;20494;-81
2021/06/20 12:22:12;;;;;;;13.00;3.40;;;30.50;82.10;;;;;;5093879;28;20185;-80
2021/06/20 12:24:46;;;;;;;15.82;2.65;;;30.50;76.90;;;;;;5095097;28;20044;-77
2021/06/20 12:27:27;;;;;;;13.52;2.78;;;30.60;81.30;;;;;;5102042;28;20097;-76
2021/06/20 12:29:56;;;;;;;11.00;2.65;;;30.50;77.00;;;;;;5101416;28;20075;-76
2021/06/20 12:32:23;;;;;;;10.40;2.70;;;;;;;;;;5100452;28;20052;-76
2021/06/20 12:34:55;;;;;;;13.30;2.80;;;30.70;83.00;;;;;;5102410;28;20052;-76
2021/06/20 12:37:23;;;;;;;10.90;2.85;;;30.70;81.30;;;;;;5101369;28;20052;-78
2021/06/20 12:39:55;;;;;;;14.32;3.25;;;30.60;83.40;;;;;;5102587;28;20075;-77
2021/06/20 12:42:25;;;;;;;18.38;3.42;;;31.00;75.10;;;;;;5101726;28;20048;-76
2021/06/20 12:44:56;;;;;;;10.80;3.13;;;31.10;76.10;;;;;;5100829;28;20044;-77
2021/06/20 12:47:32;;;;;;;12.20;3.00;;;31.00;73.60;;;;;;5113125;28;20024;-78
2021/06/20 12:50:01;;;;;;;12.65;2.72;;;31.10;67.70;;;;;;5114529;28;20036;-78
2021/06/20 12:52:32;;;;;;;13.13;3.00;;;31.10;64.80;;;;;;5106653;28;20044;-76
2021/06/20 12:55:00;;;;;;;16.23;2.97;;;31.20;57.30;;;;;;5100451;28;20048;-75
2021/06/20 12:57:30;;;;;;;13.40;3.17;;;;;;;;;;5098040;28;20044;-76
2021/06/20 13:00:09;;;;;;;15.98;3.00;;;31.50;57.30;;;;;;5101628;28;20040;-80
2021/06/20 13:02:37;;;;;;;12.55;3.20;;;31.50;57.80;;;;;;5097453;28;20123;-77
2021/06/20 13:05:05;;;;;;;14.90;3.47;;;31.60;57.70;;;;;;5102535;28;20048;-76
2021/06/20 13:07:35;;;;;;;11.95;2.67;;;31.80;57.70;;;;;;5103849;28;20036;-79
2021/06/20 13:10:10;;;;;;;11.30;2.50;;;32.10;56.40;;;;;;5103607;28;20476;-77
2021/06/20 13:12:38;;;;;;;10.05;2.80;;;32.10;56.90;;;;;;5103597;28;20040;-78
2021/06/20 13:15:11;;;;;;;14.00;3.53;;;32.30;56.90;;;;;;5101755;28;20090;-78
2021/06/20 13:17:39;;;;;;;14.85;3.75;;;;;;;;;;5097833;28;20043;-78
2021/06/20 13:20:09;;;;;;;14.52;2.95;;;32.60;62.60;;;;;;5092130;28;20079;-78
2021/06/20 13:22:37;;;;;;;11.65;2.83;;;32.70;57.30;;;;;;5088630;28;20044;-79
2021/06/20 13:25:07;;;;;;;15.23;3.42;;;32.80;55.60;;;;;;5091315;28;20123;-79
2021/06/20 13:27:35;;;;;;;14.55;3.38;;;32.80;54.60;;;;;;5084689;28;20094;-77
2021/06/20 13:30:03;;;;;;;19.00;3.08;;;32.80;53.70;;;;;;5092056;28;20101;-76
2021/06/20 13:32:31;;;;;;;13.40;2.83;;;32.80;53.90;;;;;;5091930;28;20097;-80
2021/06/20 13:34:58;;;;;;;12.27;3.08;;;32.70;53.70;;;;;;5091658;28;20084;-79
2021/06/20 13:37:25;;;;;;;13.77;3.38;;;32.60;53.90;;;;;;5090956;28;20062;-76
2021/06/20 13:39:53;;;;;;;16.88;3.65;;;32.70;54.10;;;;;;5091480;28;20127;-77
2021/06/20 13:42:21;;;;;;;15.63;4.18;;;32.90;52.60;;;;;;5090978;28;20079;-77
2021/06/20 13:44:48;;;;;;;11.35;3.17;;;32.80;65.00;;;;;;5090582;28;20130;-76
2021/06/20 13:47:15;;;;;;;14.80;3.58;;;33.00;58.80;;;;;;5090747;28;20040;-77
2021/06/20 13:49:42;;;;;;;12.90;3.13;;;33.20;56.20;;;;;;5090259;28;20136;-79
2021/06/20 13:52:09;;;;;;;15.88;3.83;;;33.30;57.80;;;;;;5090157;28;20044;-79
2021/06/20 13:54:37;;;;;;;14.80;3.05;;;33.40;52.90;;;;;;5090425;28;20127;-78
2021/06/20 13:57:05;;;;;;;12.75;2.90;;;33.50;52.50;;;;;;5090546;28;20127;-78